sensor_id;sensor_type;location;lat;lon;timestamp;pressure;altitude;pressure_sealevel;temperature;humidity
6136;BME280;24008;42.664;23.372;2023-05-06T00:01:26;94872.41;;;8.79;100.00
6136;BME280;24008;42.664;23.372;2023-05-06T00:03:52;94877.50;;;8.79;100.00
6136;BME280;24008;42.664;23.372;2023-05-06T00:06:19;94840.09;;;8.58;100.00
6136;BME280;24008;42.664;23.372;2023-05-06T00:08:46;94869.28;;;8.75;100.00
6136;BME280;24008;42.664;23.372;2023-05-06T00:11:13;94874.50;;;8.74;100.00
6136;BME280;24008;42.664;23.372;2023-05-06T00:13:40;94871.28;;;8.72;100.00
6136;BME280;24008;42.664;23.372;2023-05-06T00:16:08;94873.94;;;8.70;100.00
6136;BME280;24008;42.664;23.372;2023-05-06T00:18:35;94755.28;;;7.95;100.00
6136;BME280;24008;42.664;23.372;2023-05-06T00:21:02;94870.75;;;8.68;100.00
6136;BME280;24008;42.664;23.372;2023-05-06T00:23:28;94866.44;;;8.69;100.00
6136;BME280;24008;42.664;23.372;2023-05-06T00:25:55;94806.69;;;8.31;100.00
6136;BME280;24008;42.664;23.372;2023-05-06T00:28:22;94867.06;;;8.61;100.00
6136;BME280;24008;42.664;23.372;2023-05-06T00:30:48;94730.63;;;7.75;100.00
6136;BME280;24008;42.664;23.372;2023-05-06T00:33:16;94839.78;;;8.31;100.00
6136;BME280;24008;42.664;23.372;2023-05-06T00:35:43;94840.94;;;8.27;100.00
6136;BME280;24008;42.664;23.372;2023-05-06T00:38:11;94869.50;;;8.42;100.00
6136;BME280;24008;42.664;23.372;2023-05-06T00:40:38;94870.09;;;8.34;100.00
6136;BME280;24008;42.664;23.372;2023-05-06T00:43:05;94878.22;;;8.28;100.00
6136;BME280;24008;42.664;23.372;2023-05-06T00:45:32;94868.28;;;8.25;100.00
6136;BME280;24008;42.664;23.372;2023-05-06T00:47:58;94842.91;;;8.03;100.00
6136;BME280;24008;42.664;23.372;2023-05-06T00:50:27;94870.41;;;8.20;100.00
6136;BME280;24008;42.664;23.372;2023-05-06T00:52:57;94827.69;;;7.91;100.00
6136;BME280;24008;42.664;23.372;2023-05-06T00:55:25;94859.75;;;8.15;100.00
6136;BME280;24008;42.664;23.372;2023-05-06T00:57:53;94836.16;;;7.92;100.00
6136;BME280;24008;42.664;23.372;2023-05-06T01:00:20;94858.50;;;8.09;100.00
6136;BME280;24008;42.664;23.372;2023-05-06T01:02:47;94846.78;;;7.86;100.00
6136;BME280;24008;42.664;23.372;2023-05-06T01:05:14;94858.75;;;8.06;100.00
6136;BME280;24008;42.664;23.372;2023-05-06T01:07:50;94827.50;;;7.83;100.00
6136;BME280;24008;42.664;23.372;2023-05-06T01:10:23;94809.53;;;7.64;100.00
6136;BME280;24008;42.664;23.372;2023-05-06T01:12:57;94851.06;;;7.85;100.00
6136;BME280;24008;42.664;23.372;2023-05-06T01:15:32;94779.53;;;7.47;100.00
6136;BME280;24008;42.664;23.372;2023-05-06T01:18:00;94819.13;;;7.72;100.00
6136;BME280;24008;42.664;23.372;2023-05-06T01:20:30;94877.69;;;7.92;100.00
6136;BME280;24008;42.664;23.372;2023-05-06T01:23:00;94768.72;;;7.34;100.00
6136;BME280;24008;42.664;23.372;2023-05-06T01:25:28;94843.00;;;7.80;100.00
6136;BME280;24008;42.664;23.372;2023-05-06T01:27:56;94792.00;;;7.50;100.00
6136;BME280;24008;42.664;23.372;2023-05-06T01:30:28;94859.41;;;7.87;100.00
6136;BME280;24008;42.664;23.372;2023-05-06T01:33:04;94822.94;;;7.66;100.00
6136;BME280;24008;42.664;23.372;2023-05-06T01:35:39;94848.53;;;7.85;100.00
6136;BME280;24008;42.664;23.372;2023-05-06T01:38:16;94842.78;;;7.83;100.00
6136;BME280;24008;42.664;23.372;2023-05-06T01:40:49;94848.91;;;7.81;100.00
6136;BME280;24008;42.664;23.372;2023-05-06T01:43:20;94750.72;;;7.14;100.00
6136;BME280;24008;42.664;23.372;2023-05-06T01:45:48;94827.56;;;7.61;100.00
6136;BME280;24008;42.664;23.372;2023-05-06T01:48:18;94777.50;;;7.30;100.00
6136;BME280;24008;42.664;23.372;2023-05-06T01:50:47;94754.22;;;7.02;100.00
6136;BME280;24008;42.664;23.372;2023-05-06T01:53:14;94819.75;;;7.53;100.00
6136;BME280;24008;42.664;23.372;2023-05-06T01:55:41;94816.66;;;7.38;100.00
6136;BME280;24008;42.664;23.372;2023-05-06T01:58:09;94823.44;;;7.49;100.00
6136;BME280;24008;42.664;23.372;2023-05-06T02:00:36;94858.56;;;7.66;100.00
6136;BME280;24008;42.664;23.372;2023-05-06T02:03:03;94823.69;;;7.46;100.00
6136;BME280;24008;42.664;23.372;2023-05-06T02:05:30;94821.84;;;7.48;100.00
6136;BME280;24008;42.664;23.372;2023-05-06T02:07:57;94822.50;;;7.50;100.00
6136;BME280;24008;42.664;23.372;2023-05-06T02:10:24;94857.41;;;7.70;100.00
6136;BME280;24008;42.664;23.372;2023-05-06T02:12:51;94809.03;;;7.38;100.00
6136;BME280;24008;42.664;23.372;2023-05-06T02:15:19;94855.13;;;7.56;100.00
6136;BME280;24008;42.664;23.372;2023-05-06T02:17:46;94837.00;;;7.38;100.00
6136;BME280;24008;42.664;23.372;2023-05-06T02:20:13;94664.75;;;6.33;100.00
6136;BME280;24008;42.664;23.372;2023-05-06T02:22:40;94855.56;;;7.50;100.00
6136;BME280;24008;42.664;23.372;2023-05-06T02:25:07;94804.38;;;7.11;100.00
6136;BME280;24008;42.664;23.372;2023-05-06T02:27:34;94829.38;;;7.27;100.00
6136;BME280;24008;42.664;23.372;2023-05-06T02:30:01;94847.28;;;7.48;100.00
6136;BME280;24008;42.664;23.372;2023-05-06T02:32:29;94850.75;;;7.47;100.00
6136;BME280;24008;42.664;23.372;2023-05-06T02:34:56;94846.47;;;7.47;100.00
6136;BME280;24008;42.664;23.372;2023-05-06T02:37:23;94803.28;;;7.14;100.00
6136;BME280;24008;42.664;23.372;2023-05-06T02:39:50;94744.47;;;6.75;100.00
6136;BME280;24008;42.664;23.372;2023-05-06T02:42:17;94851.31;;;7.39;100.00
6136;BME280;24008;42.664;23.372;2023-05-06T02:44:43;94775.97;;;6.84;100.00
6136;BME280;24008;42.664;23.372;2023-05-06T02:47:10;94851.69;;;7.35;100.00
6136;BME280;24008;42.664;23.372;2023-05-06T02:49:38;94854.34;;;7.33;100.00
6136;BME280;24008;42.664;23.372;2023-05-06T02:52:05;94819.13;;;7.17;100.00
6136;BME280;24008;42.664;23.372;2023-05-06T02:54:32;94857.34;;;7.38;100.00
6136;BME280;24008;42.664;23.372;2023-05-06T02:56:58;94792.59;;;6.99;100.00
6136;BME280;24008;42.664;23.372;2023-05-06T02:59:25;94867.50;;;7.38;100.00
6136;BME280;24008;42.664;23.372;2023-05-06T03:01:52;94867.28;;;7.41;100.00
6136;BME280;24008;42.664;23.372;2023-05-06T03:04:19;94871.31;;;7.44;100.00
6136;BME280;24008;42.664;23.372;2023-05-06T03:06:47;94818.44;;;7.15;100.00
6136;BME280;24008;42.664;23.372;2023-05-06T03:09:14;94837.72;;;7.29;100.00
6136;BME280;24008;42.664;23.372;2023-05-06T03:11:40;94819.13;;;7.17;100.00
6136;BME280;24008;42.664;23.372;2023-05-06T03:14:07;94832.31;;;7.22;100.00
6136;BME280;24008;42.664;23.372;2023-05-06T03:16:34;94772.41;;;6.86;100.00
6136;BME280;24008;42.664;23.372;2023-05-06T03:19:01;94872.94;;;7.45;100.00
6136;BME280;24008;42.664;23.372;2023-05-06T03:21:28;94866.94;;;7.46;100.00
6136;BME280;24008;42.664;23.372;2023-05-06T03:23:56;94879.38;;;7.49;100.00
6136;BME280;24008;42.664;23.372;2023-05-06T03:26:22;94845.91;;;7.33;100.00
6136;BME280;24008;42.664;23.372;2023-05-06T03:28:49;94883.44;;;7.51;100.00
6136;BME280;24008;42.664;23.372;2023-05-06T03:31:16;94849.97;;;7.35;100.00
6136;BME280;24008;42.664;23.372;2023-05-06T03:33:43;94877.31;;;7.54;100.00
6136;BME280;24008;42.664;23.372;2023-05-06T03:36:09;94878.94;;;7.55;100.00
6136;BME280;24008;42.664;23.372;2023-05-06T03:38:37;94880.56;;;7.56;100.00
6136;BME280;24008;42.664;23.372;2023-05-06T03:41:05;94882.28;;;7.55;100.00
6136;BME280;24008;42.664;23.372;2023-05-06T03:43:31;94882.41;;;7.54;100.00
6136;BME280;24008;42.664;23.372;2023-05-06T03:45:58;94888.88;;;7.58;100.00
6136;BME280;24008;42.664;23.372;2023-05-06T03:48:25;94892.78;;;7.62;100.00
6136;BME280;24008;42.664;23.372;2023-05-06T03:50:51;94816.13;;;7.23;100.00
6136;BME280;24008;42.664;23.372;2023-05-06T03:53:18;94890.91;;;7.75;100.00
6136;BME280;24008;42.664;23.372;2023-05-06T03:55:45;94897.16;;;7.82;100.00
6136;BME280;24008;42.664;23.372;2023-05-06T03:58:32;94898.84;;;7.93;100.00
6136;BME280;24008;42.664;23.372;2023-05-06T04:00:59;94905.44;;;7.95;100.00
6136;BME280;24008;42.664;23.372;2023-05-06T04:03:26;94776.81;;;7.28;100.00
6136;BME280;24008;42.664;23.372;2023-05-06T04:05:53;94866.22;;;7.87;100.00
6136;BME280;24008;42.664;23.372;2023-05-06T04:08:20;94900.50;;;8.15;100.00
6136;BME280;24008;42.664;23.372;2023-05-06T04:10:46;94878.09;;;8.09;100.00
6136;BME280;24008;42.664;23.372;2023-05-06T04:13:13;94906.00;;;8.31;100.00
6136;BME280;24008;42.664;23.372;2023-05-06T04:15:41;94905.03;;;8.43;100.00
6136;BME280;24008;42.664;23.372;2023-05-06T04:18:08;94905.78;;;8.55;100.00
6136;BME280;24008;42.664;23.372;2023-05-06T04:20:35;94881.78;;;8.57;100.00
6136;BME280;24008;42.664;23.372;2023-05-06T04:23:01;94906.75;;;8.84;100.00
6136;BME280;24008;42.664;23.372;2023-05-06T04:25:28;94902.25;;;8.97;100.00
6136;BME280;24008;42.664;23.372;2023-05-06T04:27:55;94905.13;;;9.04;100.00
6136;BME280;24008;42.664;23.372;2023-05-06T04:30:22;94896.97;;;9.10;100.00
6136;BME280;24008;42.664;23.372;2023-05-06T04:32:50;94883.38;;;9.00;99.62
6136;BME280;24008;42.664;23.372;2023-05-06T04:35:17;94786.66;;;8.47;99.33
6136;BME280;24008;42.664;23.372;2023-05-06T04:37:43;94908.09;;;9.39;98.11
6136;BME280;24008;42.664;23.372;2023-05-06T04:40:11;94802.38;;;8.83;97.61
6136;BME280;24008;42.664;23.372;2023-05-06T04:42:39;94919.19;;;9.69;98.21
6136;BME280;24008;42.664;23.372;2023-05-06T04:45:07;94830.81;;;9.18;97.13
6136;BME280;24008;42.664;23.372;2023-05-06T04:47:35;94837.50;;;9.50;96.90
6136;BME280;24008;42.664;23.372;2023-05-06T04:50:04;94844.13;;;10.00;95.87
6136;BME280;24008;42.664;23.372;2023-05-06T04:52:31;94925.56;;;10.80;93.22
6136;BME280;24008;42.664;23.372;2023-05-06T04:54:58;94926.38;;;11.65;92.10
6136;BME280;24008;42.664;23.372;2023-05-06T04:57:25;94844.63;;;12.34;84.63
6136;BME280;24008;42.664;23.372;2023-05-06T04:59:51;94929.44;;;14.04;77.43
6136;BME280;24008;42.664;23.372;2023-05-06T05:02:18;94913.47;;;14.91;73.18
6136;BME280;24008;42.664;23.372;2023-05-06T05:04:45;94935.25;;;15.44;67.54
6136;BME280;24008;42.664;23.372;2023-05-06T05:07:13;94908.81;;;15.58;65.70
6136;BME280;24008;42.664;23.372;2023-05-06T05:09:40;94942.22;;;15.82;63.58
6136;BME280;24008;42.664;23.372;2023-05-06T05:12:07;94943.19;;;16.43;62.17
6136;BME280;24008;42.664;23.372;2023-05-06T05:14:33;94942.44;;;16.88;60.42
6136;BME280;24008;42.664;23.372;2023-05-06T05:17:00;94853.28;;;16.55;59.71
6136;BME280;24008;42.664;23.372;2023-05-06T05:19:27;94886.56;;;16.73;58.75
6136;BME280;24008;42.664;23.372;2023-05-06T05:21:53;94945.97;;;16.42;60.40
6136;BME280;24008;42.664;23.372;2023-05-06T05:24:22;94945.47;;;15.76;61.74
6136;BME280;24008;42.664;23.372;2023-05-06T05:26:49;94859.75;;;14.31;64.55
6136;BME280;24008;42.664;23.372;2023-05-06T05:29:16;94952.34;;;14.39;65.52
6136;BME280;24008;42.664;23.372;2023-05-06T05:31:42;94947.41;;;13.96;68.77
6136;BME280;24008;42.664;23.372;2023-05-06T05:34:09;94869.13;;;13.24;70.68
6136;BME280;24008;42.664;23.372;2023-05-06T05:36:36;94948.88;;;13.64;71.41
6136;BME280;24008;42.664;23.372;2023-05-06T05:39:03;94914.16;;;13.18;73.81
6136;BME280;24008;42.664;23.372;2023-05-06T05:41:31;94737.94;;;12.07;73.64
6136;BME280;24008;42.664;23.372;2023-05-06T05:43:57;94902.66;;;13.05;76.29
6136;BME280;24008;42.664;23.372;2023-05-06T05:46:24;94941.56;;;13.18;76.23
6136;BME280;24008;42.664;23.372;2023-05-06T05:48:51;94950.34;;;12.89;77.50
6136;BME280;24008;42.664;23.372;2023-05-06T05:51:18;94946.31;;;12.69;78.00
6136;BME280;24008;42.664;23.372;2023-05-06T05:53:45;94944.94;;;12.57;78.85
6136;BME280;24008;42.664;23.372;2023-05-06T05:56:11;94950.91;;;12.40;79.92
6136;BME280;24008;42.664;23.372;2023-05-06T05:58:40;94946.88;;;12.37;81.03
6136;BME280;24008;42.664;23.372;2023-05-06T06:01:06;94910.91;;;12.11;82.65
6136;BME280;24008;42.664;23.372;2023-05-06T06:03:34;94953.53;;;12.48;82.86
6136;BME280;24008;42.664;23.372;2023-05-06T06:06:01;94937.41;;;12.38;81.55
6136;BME280;24008;42.664;23.372;2023-05-06T06:08:28;94955.06;;;12.58;80.12
6136;BME280;24008;42.664;23.372;2023-05-06T06:10:56;94844.19;;;11.85;79.76
6136;BME280;24008;42.664;23.372;2023-05-06T06:13:23;94959.00;;;12.71;81.07
6136;BME280;24008;42.664;23.372;2023-05-06T06:15:54;94938.19;;;12.56;80.84
6136;BME280;24008;42.664;23.372;2023-05-06T06:18:22;94956.66;;;12.77;80.74
6136;BME280;24008;42.664;23.372;2023-05-06T06:20:48;94963.69;;;12.75;80.36
6136;BME280;24008;42.664;23.372;2023-05-06T06:23:15;94919.63;;;12.36;80.77
6136;BME280;24008;42.664;23.372;2023-05-06T06:25:42;94918.53;;;12.39;80.20
6136;BME280;24008;42.664;23.372;2023-05-06T06:28:08;94944.66;;;12.60;80.56
6136;BME280;24008;42.664;23.372;2023-05-06T06:30:35;94935.81;;;12.54;80.65
6136;BME280;24008;42.664;23.372;2023-05-06T06:33:04;94962.53;;;12.70;80.22
6136;BME280;24008;42.664;23.372;2023-05-06T06:35:31;94961.72;;;12.69;80.18
6136;BME280;24008;42.664;23.372;2023-05-06T06:37:57;94942.84;;;12.52;80.11
6136;BME280;24008;42.664;23.372;2023-05-06T06:40:24;94972.13;;;12.50;79.94
6136;BME280;24008;42.664;23.372;2023-05-06T06:42:51;94950.91;;;12.40;80.76
6136;BME280;24008;42.664;23.372;2023-05-06T06:45:19;94970.75;;;12.55;80.78
6136;BME280;24008;42.664;23.372;2023-05-06T06:47:46;94971.25;;;12.59;79.87
6136;BME280;24008;42.664;23.372;2023-05-06T06:50:15;94972.81;;;12.52;79.97
6136;BME280;24008;42.664;23.372;2023-05-06T06:52:48;94974.97;;;12.47;80.86
6136;BME280;24008;42.664;23.372;2023-05-06T06:55:15;94929.72;;;12.38;80.91
6136;BME280;24008;42.664;23.372;2023-05-06T06:57:42;94967.38;;;12.73;80.42
6136;BME280;24008;42.664;23.372;2023-05-06T07:00:09;94899.03;;;12.46;81.24
6136;BME280;24008;42.664;23.372;2023-05-06T07:02:36;94803.44;;;12.10;81.23
6136;BME280;24008;42.664;23.372;2023-05-06T07:05:04;94884.66;;;12.96;80.39
6136;BME280;24008;42.664;23.372;2023-05-06T07:07:52;94949.38;;;13.68;76.08
6136;BME280;24008;42.664;23.372;2023-05-06T07:10:20;94973.34;;;14.19;74.06
6136;BME280;24008;42.664;23.372;2023-05-06T07:12:46;94972.47;;;14.44;72.24
6136;BME280;24008;42.664;23.372;2023-05-06T07:15:13;94922.41;;;14.30;72.07
6136;BME280;24008;42.664;23.372;2023-05-06T07:17:40;94945.31;;;14.66;70.58
6136;BME280;24008;42.664;23.372;2023-05-06T07:20:08;94971.38;;;14.95;70.18
6136;BME280;24008;42.664;23.372;2023-05-06T07:22:35;94979.69;;;15.22;70.46
6136;BME280;24008;42.664;23.372;2023-05-06T07:25:03;94979.09;;;15.20;68.23
6136;BME280;24008;42.664;23.372;2023-05-06T07:27:30;94978.72;;;15.39;69.10
6136;BME280;24008;42.664;23.372;2023-05-06T07:29:57;94974.84;;;15.43;67.70
6136;BME280;24008;42.664;23.372;2023-05-06T07:32:24;94990.88;;;15.85;66.35
6136;BME280;24008;42.664;23.372;2023-05-06T07:34:50;94988.06;;;16.03;64.30
6136;BME280;24008;42.664;23.372;2023-05-06T07:37:17;94978.69;;;16.41;63.40
6136;BME280;24008;42.664;23.372;2023-05-06T07:39:44;94851.00;;;15.92;61.55
6136;BME280;24008;42.664;23.372;2023-05-06T07:42:13;94677.09;;;15.34;59.96
6136;BME280;24008;42.664;23.372;2023-05-06T07:44:40;94557.69;;;15.12;56.62
6136;BME280;24008;42.664;23.372;2023-05-06T07:47:06;94661.28;;;16.05;56.99
6136;BME280;24008;42.664;23.372;2023-05-06T07:49:33;94973.25;;;18.16;55.09
6136;BME280;24008;42.664;23.372;2023-05-06T07:52:00;94976.53;;;18.24;54.42
6136;BME280;24008;42.664;23.372;2023-05-06T07:54:27;94873.63;;;17.69;55.53
6136;BME280;24008;42.664;23.372;2023-05-06T07:56:55;94858.31;;;18.04;54.56
6136;BME280;24008;42.664;23.372;2023-05-06T07:59:24;94977.22;;;19.12;53.21
6136;BME280;24008;42.664;23.372;2023-05-06T08:01:51;94972.66;;;19.63;53.02
6136;BME280;24008;42.664;23.372;2023-05-06T08:04:18;94910.78;;;19.60;51.63
6136;BME280;24008;42.664;23.372;2023-05-06T08:06:44;94971.59;;;20.33;50.24
6136;BME280;24008;42.664;23.372;2023-05-06T08:09:11;94942.72;;;20.56;49.92
6136;BME280;24008;42.664;23.372;2023-05-06T08:11:38;94978.16;;;20.76;48.18
6136;BME280;24008;42.664;23.372;2023-05-06T08:14:05;94916.94;;;20.54;46.41
6136;BME280;24008;42.664;23.372;2023-05-06T08:16:33;94976.00;;;21.26;46.01
6136;BME280;24008;42.664;23.372;2023-05-06T08:19:00;94891.19;;;21.32;44.65
6136;BME280;24008;42.664;23.372;2023-05-06T08:21:27;94928.44;;;22.03;46.27
6136;BME280;24008;42.664;23.372;2023-05-06T08:23:54;94881.81;;;22.40;44.37
6136;BME280;24008;42.664;23.372;2023-05-06T08:26:21;94909.44;;;22.41;43.45
6136;BME280;24008;42.664;23.372;2023-05-06T08:28:48;94977.38;;;22.39;44.19
6136;BME280;24008;42.664;23.372;2023-05-06T08:31:14;94967.03;;;22.19;44.78
6136;BME280;24008;42.664;23.372;2023-05-06T08:33:42;94971.34;;;22.39;45.05
6136;BME280;24008;42.664;23.372;2023-05-06T08:36:09;94969.63;;;22.64;44.88
6136;BME280;24008;42.664;23.372;2023-05-06T08:38:36;94976.03;;;22.68;44.41
6136;BME280;24008;42.664;23.372;2023-05-06T08:41:07;94969.41;;;23.04;42.65
6136;BME280;24008;42.664;23.372;2023-05-06T08:43:39;94888.16;;;22.75;41.18
6136;BME280;24008;42.664;23.372;2023-05-06T08:46:07;94946.06;;;24.01;39.56
6136;BME280;24008;42.664;23.372;2023-05-06T08:48:34;94977.03;;;24.34;38.96
6136;BME280;24008;42.664;23.372;2023-05-06T08:51:03;94966.59;;;24.64;38.80
6136;BME280;24008;42.664;23.372;2023-05-06T08:53:31;94916.00;;;24.59;38.58
6136;BME280;24008;42.664;23.372;2023-05-06T08:56:01;94953.44;;;25.12;36.88
6136;BME280;24008;42.664;23.372;2023-05-06T08:58:30;94954.09;;;24.96;38.03
6136;BME280;24008;42.664;23.372;2023-05-06T09:00:59;94965.69;;;24.40;37.31
6136;BME280;24008;42.664;23.372;2023-05-06T09:03:27;94939.75;;;23.91;40.10
6136;BME280;24008;42.664;23.372;2023-05-06T09:05:55;94971.00;;;23.97;38.66
6136;BME280;24008;42.664;23.372;2023-05-06T09:08:23;94884.59;;;23.44;40.08
6136;BME280;24008;42.664;23.372;2023-05-06T09:10:50;94957.59;;;24.12;38.28
6136;BME280;24008;42.664;23.372;2023-05-06T09:13:17;94955.69;;;24.19;37.84
6136;BME280;24008;42.664;23.372;2023-05-06T09:15:47;94910.44;;;23.52;38.03
6136;BME280;24008;42.664;23.372;2023-05-06T09:18:15;94947.84;;;23.83;38.03
6136;BME280;24008;42.664;23.372;2023-05-06T09:20:44;94933.63;;;23.60;40.27
6136;BME280;24008;42.664;23.372;2023-05-06T09:23:13;94928.44;;;23.97;39.80
6136;BME280;24008;42.664;23.372;2023-05-06T09:25:43;94939.16;;;24.25;37.68
6136;BME280;24008;42.664;23.372;2023-05-06T09:28:12;94909.50;;;23.65;38.07
6136;BME280;24008;42.664;23.372;2023-05-06T09:30:40;94938.03;;;23.17;38.51
6136;BME280;24008;42.664;23.372;2023-05-06T09:33:07;94907.84;;;22.71;39.94
6136;BME280;24008;42.664;23.372;2023-05-06T09:35:35;94901.88;;;22.64;40.63
6136;BME280;24008;42.664;23.372;2023-05-06T09:38:03;94930.00;;;23.61;39.30
6136;BME280;24008;42.664;23.372;2023-05-06T09:40:30;94859.66;;;23.30;38.78
6136;BME280;24008;42.664;23.372;2023-05-06T09:43:03;94756.56;;;22.16;38.87
6136;BME280;24008;42.664;23.372;2023-05-06T09:45:34;94715.09;;;21.52;39.41
6136;BME280;24008;42.664;23.372;2023-05-06T09:48:01;94922.59;;;22.52;40.40
6136;BME280;24008;42.664;23.372;2023-05-06T09:50:28;94923.75;;;22.25;40.87
6136;BME280;24008;42.664;23.372;2023-05-06T09:52:55;94925.25;;;21.95;40.72
6136;BME280;24008;42.664;23.372;2023-05-06T09:55:22;94873.81;;;21.19;41.61
6136;BME280;24008;42.664;23.372;2023-05-06T09:57:50;94926.41;;;21.21;42.59
6136;BME280;24008;42.664;23.372;2023-05-06T10:00:20;94922.56;;;20.77;43.80
6136;BME280;24008;42.664;23.372;2023-05-06T10:02:53;94926.34;;;20.48;44.81
6136;BME280;24008;42.664;23.372;2023-05-06T10:05:20;94922.31;;;20.39;44.84
6136;BME280;24008;42.664;23.372;2023-05-06T10:07:48;94893.56;;;19.80;45.43
6136;BME280;24008;42.664;23.372;2023-05-06T10:10:17;94931.63;;;19.73;45.32
6136;BME280;24008;42.664;23.372;2023-05-06T10:12:45;94886.56;;;19.12;46.50
6136;BME280;24008;42.664;23.372;2023-05-06T10:15:12;94870.44;;;18.88;47.32
6136;BME280;24008;42.664;23.372;2023-05-06T10:17:43;94926.66;;;19.43;47.46
6136;BME280;24008;42.664;23.372;2023-05-06T10:20:13;94956.81;;;19.79;46.66
6136;BME280;24008;42.664;23.372;2023-05-06T10:22:47;94915.66;;;20.24;45.69
6136;BME280;24008;42.664;23.372;2023-05-06T10:25:26;94913.19;;;20.63;44.55
6136;BME280;24008;42.664;23.372;2023-05-06T10:27:55;94878.81;;;21.01;42.45
6136;BME280;24008;42.664;23.372;2023-05-06T10:30:23;94873.03;;;21.25;39.77
6136;BME280;24008;42.664;23.372;2023-05-06T10:32:55;94898.81;;;21.20;41.70
6136;BME280;24008;42.664;23.372;2023-05-06T10:35:33;94852.63;;;20.56;43.35
6136;BME280;24008;42.664;23.372;2023-05-06T10:38:04;94922.59;;;20.97;42.07
6136;BME280;24008;42.664;23.372;2023-05-06T10:40:33;94877.13;;;20.27;41.09
6136;BME280;24008;42.664;23.372;2023-05-06T10:43:22;94853.84;;;19.86;41.75
6136;BME280;24008;42.664;23.372;2023-05-06T10:45:59;94915.81;;;20.09;41.74
6136;BME280;24008;42.664;23.372;2023-05-06T10:48:28;94819.75;;;19.41;41.95
6136;BME280;24008;42.664;23.372;2023-05-06T10:51:25;94855.59;;;19.31;42.36
6136;BME280;24008;42.664;23.372;2023-05-06T10:54:11;94906.78;;;19.57;43.18
6136;BME280;24008;42.664;23.372;2023-05-06T10:57:07;94922.38;;;20.05;42.02
6136;BME280;24008;42.664;23.372;2023-05-06T10:59:35;94859.09;;;19.99;40.70
6136;BME280;24008;42.664;23.372;2023-05-06T11:02:07;94833.22;;;20.26;40.05
6136;BME280;24008;42.664;23.372;2023-05-06T11:04:36;94868.81;;;20.78;39.41
6136;BME280;24008;42.664;23.372;2023-05-06T11:07:07;94902.41;;;20.93;39.11
6136;BME280;24008;42.664;23.372;2023-05-06T11:09:52;94877.41;;;21.05;38.33
6136;BME280;24008;42.664;23.372;2023-05-06T11:12:20;94766.16;;;20.36;38.68
6136;BME280;24008;42.664;23.372;2023-05-06T11:14:46;94834.25;;;20.58;39.08
6136;BME280;24008;42.664;23.372;2023-05-06T11:17:29;94903.81;;;20.75;39.32
6136;BME280;24008;42.664;23.372;2023-05-06T11:20:19;94912.97;;;20.58;40.13
6136;BME280;24008;42.664;23.372;2023-05-06T11:22:46;94864.34;;;20.26;40.11
6136;BME280;24008;42.664;23.372;2023-05-06T11:25:13;94899.78;;;20.66;40.17
6136;BME280;24008;42.664;23.372;2023-05-06T11:27:40;94900.00;;;20.84;39.55
6136;BME280;24008;42.664;23.372;2023-05-06T11:30:12;94900.00;;;21.11;39.63
6136;BME280;24008;42.664;23.372;2023-05-06T11:32:40;94858.22;;;20.79;40.03
6136;BME280;24008;42.664;23.372;2023-05-06T11:35:08;94896.41;;;20.85;40.76
6136;BME280;24008;42.664;23.372;2023-05-06T11:37:41;94907.19;;;20.69;40.35
6136;BME280;24008;42.664;23.372;2023-05-06T11:40:13;94873.56;;;20.41;40.82
6136;BME280;24008;42.664;23.372;2023-05-06T11:42:40;94903.97;;;20.67;40.65
6136;BME280;24008;42.664;23.372;2023-05-06T11:45:08;94839.44;;;20.38;39.02
6136;BME280;24008;42.664;23.372;2023-05-06T11:47:44;94837.75;;;20.10;38.77
6136;BME280;24008;42.664;23.372;2023-05-06T11:50:29;94740.94;;;19.29;39.35
6136;BME280;24008;42.664;23.372;2023-05-06T11:52:58;94897.09;;;20.27;39.36
6136;BME280;24008;42.664;23.372;2023-05-06T11:55:25;94909.53;;;20.44;39.10
6136;BME280;24008;42.664;23.372;2023-05-06T11:57:52;94900.56;;;20.47;39.18
6136;BME280;24008;42.664;23.372;2023-05-06T12:00:19;94870.53;;;20.31;39.58
6136;BME280;24008;42.664;23.372;2023-05-06T12:02:46;94874.31;;;20.16;40.13
6136;BME280;24008;42.664;23.372;2023-05-06T12:05:13;94892.25;;;20.10;40.16
6136;BME280;24008;42.664;23.372;2023-05-06T12:07:41;94861.41;;;19.81;40.49
6136;BME280;24008;42.664;23.372;2023-05-06T12:10:09;94897.22;;;19.99;40.18
6136;BME280;24008;42.664;23.372;2023-05-06T12:12:36;94888.47;;;20.20;39.54
6136;BME280;24008;42.664;23.372;2023-05-06T12:15:04;94903.34;;;20.39;39.06
6136;BME280;24008;42.664;23.372;2023-05-06T12:17:31;94887.19;;;20.57;38.86
6136;BME280;24008;42.664;23.372;2023-05-06T12:19:58;94875.63;;;20.72;38.42
6136;BME280;24008;42.664;23.372;2023-05-06T12:22:25;94877.63;;;20.83;38.05
6136;BME280;24008;42.664;23.372;2023-05-06T12:24:52;94850.75;;;20.30;38.38
6136;BME280;24008;42.664;23.372;2023-05-06T12:27:30;94871.59;;;20.37;38.99
6136;BME280;24008;42.664;23.372;2023-05-06T12:29:57;94862.63;;;20.59;39.55
6136;BME280;24008;42.664;23.372;2023-05-06T12:32:24;94866.00;;;20.66;39.20
6136;BME280;24008;42.664;23.372;2023-05-06T12:34:52;94728.16;;;19.95;38.95
6136;BME280;24008;42.664;23.372;2023-05-06T12:37:23;94837.66;;;20.71;39.29
6136;BME280;24008;42.664;23.372;2023-05-06T12:39:51;94692.81;;;19.81;39.49
6136;BME280;24008;42.664;23.372;2023-05-06T12:42:19;94837.06;;;20.63;40.32
6136;BME280;24008;42.664;23.372;2023-05-06T12:44:47;94776.28;;;20.04;40.93
6136;BME280;24008;42.664;23.372;2023-05-06T12:47:19;94804.44;;;20.21;41.53
6136;BME280;24008;42.664;23.372;2023-05-06T12:49:47;94826.41;;;20.31;41.69
6136;BME280;24008;42.664;23.372;2023-05-06T12:52:16;94853.59;;;20.42;41.83
6136;BME280;24008;42.664;23.372;2023-05-06T12:54:43;94862.38;;;20.41;41.99
6136;BME280;24008;42.664;23.372;2023-05-06T12:57:10;94856.38;;;20.34;42.08
6136;BME280;24008;42.664;23.372;2023-05-06T12:59:38;94853.22;;;20.38;42.95
6136;BME280;24008;42.664;23.372;2023-05-06T13:02:06;94854.34;;;20.23;43.04
6136;BME280;24008;42.664;23.372;2023-05-06T13:04:33;94852.91;;;20.07;42.55
6136;BME280;24008;42.664;23.372;2023-05-06T13:07:00;94860.41;;;19.82;41.57